createdAt,value
2022-09-16T00:00:38.571Z,50.908211
2022-09-16T00:01:38.612Z,50.908154
2022-09-16T00:02:40.249Z,50.908146
2022-09-16T00:03:39.518Z,50.908131
2022-09-16T00:04:38.506Z,50.908127
2022-09-16T00:05:38.501Z,50.908104
2022-09-16T00:06:38.517Z,50.908199
2022-09-16T00:07:38.486Z,50.908207
2022-09-16T00:08:38.477Z,50.908199
2022-09-16T00:09:38.469Z,50.908165
2022-09-16T00:10:38.464Z,50.908176
2022-09-16T00:11:38.479Z,50.908138
2022-09-16T00:12:38.448Z,50.908165
2022-09-16T00:13:38.441Z,50.908192
2022-09-16T00:14:38.435Z,50.908218
2022-09-16T00:15:38.414Z,50.908176
2022-09-16T00:16:39.497Z,50.908154
2022-09-16T00:17:38.410Z,50.908176
2022-09-16T00:18:38.405Z,50.908134
2022-09-16T00:19:38.394Z,50.908108
2022-09-16T00:20:38.389Z,50.908066
2022-09-16T00:21:38.408Z,50.908066
2022-09-16T00:22:38.371Z,50.908058
2022-09-16T00:23:38.368Z,50.908009
2022-09-16T00:24:38.356Z,50.907887
2022-09-16T00:25:38.343Z,50.908009
2022-09-16T00:26:38.369Z,50.908123
2022-09-16T00:27:38.329Z,50.908165
2022-09-16T00:28:38.317Z,50.908146
2022-09-16T00:29:38.311Z,50.908161
2022-09-16T00:30:38.304Z,50.908085
2022-09-16T00:31:38.354Z,50.908031
2022-09-16T00:32:38.288Z,50.908161
2022-09-16T00:33:38.308Z,50.908154
2022-09-16T00:34:38.278Z,50.908142
2022-09-16T00:35:38.263Z,50.907944
2022-09-16T00:36:38.260Z,50.907970
2022-09-16T00:37:38.246Z,50.908081
2022-09-16T00:38:38.264Z,50.908092
2022-09-16T00:39:38.231Z,50.908134
2022-09-16T00:40:38.222Z,50.908119
2022-09-16T00:41:38.213Z,50.908115
2022-09-16T00:42:38.207Z,50.908073
2022-09-16T00:43:38.225Z,50.908066
2022-09-16T00:44:38.188Z,50.908077
2022-09-16T00:45:38.180Z,50.908062
2022-09-16T00:46:38.240Z,50.908062
2022-09-16T00:47:38.168Z,50.908062
2022-09-16T00:48:38.195Z,50.908062
2022-09-16T00:49:38.153Z,50.908062
2022-09-16T00:50:38.148Z,50.908062
2022-09-16T00:51:38.140Z,50.908062
2022-09-16T00:52:38.131Z,50.908062
2022-09-16T00:53:42.714Z,50.908062
2022-09-16T00:54:40.113Z,50.907867
2022-09-16T00:55:38.107Z,50.907959
2022-09-16T00:56:38.100Z,50.907913
2022-09-16T00:57:38.089Z,50.908150
2022-09-16T00:58:38.108Z,50.908237
2022-09-16T00:59:38.072Z,50.908146
2022-09-16T01:00:38.084Z,50.908123
2022-09-16T01:01:38.114Z,50.908173
2022-09-16T01:02:38.049Z,50.908157
2022-09-16T01:03:38.064Z,50.908169
2022-09-16T01:04:38.039Z,50.908180
2022-09-16T01:05:38.026Z,50.908089
2022-09-16T01:06:38.013Z,50.908138
2022-09-16T01:07:38.008Z,50.908081
2022-09-16T01:08:38.027Z,50.908150
2022-09-16T01:09:37.993Z,50.908157
2022-09-16T01:10:37.992Z,50.908157
2022-09-16T01:11:37.980Z,50.908180
2022-09-16T01:12:37.968Z,50.908173
2022-09-16T01:13:37.991Z,50.908119
2022-09-16T01:14:37.957Z,50.908108
2022-09-16T01:15:37.953Z,50.908131
2022-09-16T01:16:37.966Z,50.908100
2022-09-16T01:17:38.931Z,50.908150
2022-09-16T01:18:37.954Z,50.908127
2022-09-16T01:19:38.914Z,50.908146
2022-09-16T01:20:37.907Z,50.908142
2022-09-16T01:21:37.899Z,50.908173
2022-09-16T01:22:37.892Z,50.908146
2022-09-16T01:23:37.919Z,50.908173
2022-09-16T01:24:37.874Z,50.908070
2022-09-16T01:25:37.867Z,50.908115
2022-09-16T01:26:37.890Z,50.908142
2022-09-16T01:27:37.849Z,50.908169
2022-09-16T01:28:37.866Z,50.908169
2022-09-16T01:29:37.832Z,50.908173
2022-09-16T01:30:37.827Z,50.908154
2022-09-16T01:31:37.892Z,50.908134
2022-09-16T01:32:37.814Z,50.908142
2022-09-16T01:33:37.829Z,50.908100
2022-09-16T01:34:37.798Z,50.908119
2022-09-16T01:35:37.790Z,50.908119
2022-09-16T01:36:37.780Z,50.908138
2022-09-16T01:37:37.773Z,50.908150
2022-09-16T01:38:37.799Z,50.908108
2022-09-16T01:39:37.757Z,50.908051
2022-09-16T01:40:37.747Z,50.908138
2022-09-16T01:41:37.738Z,50.908192
2022-09-16T01:42:37.733Z,50.908173
2022-09-16T01:43:37.757Z,50.908062
2022-09-16T01:44:37.719Z,50.908092
2022-09-16T01:45:37.713Z,50.908058
2022-09-16T01:46:37.762Z,50.908024
2022-09-16T01:47:37.697Z,50.908104
2022-09-16T01:48:37.685Z,50.908096
2022-09-16T01:49:37.704Z,50.908104
2022-09-16T01:50:37.673Z,50.908154
2022-09-16T01:51:37.665Z,50.908108
2022-09-16T01:52:37.658Z,50.908081
2022-09-16T01:53:37.675Z,50.908112
2022-09-16T01:54:37.650Z,50.908161
2022-09-16T01:55:37.636Z,50.908146
2022-09-16T01:56:37.629Z,50.908184
2022-09-16T01:57:37.606Z,50.908199
2022-09-16T01:58:38.631Z,50.908035
2022-09-16T01:59:37.601Z,50.908062
2022-09-16T02:00:37.592Z,50.908115
2022-09-16T02:01:37.651Z,50.908096
2022-09-16T02:02:37.779Z,50.908028
2022-09-16T02:03:37.599Z,50.908043
2022-09-16T02:04:37.567Z,50.908066
2022-09-16T02:05:37.561Z,50.908081
2022-09-16T02:06:37.555Z,50.908112
2022-09-16T02:07:37.542Z,50.908112
2022-09-16T02:08:37.550Z,50.908127
2022-09-16T02:09:38.526Z,50.908081
2022-09-16T02:10:37.525Z,50.908142
2022-09-16T02:11:37.508Z,50.908184
2022-09-16T02:12:37.500Z,50.908157
2022-09-16T02:13:37.525Z,50.908195
2022-09-16T02:14:37.484Z,50.908119
2022-09-16T02:15:37.529Z,50.908100
2022-09-16T02:16:37.468Z,50.908131
2022-09-16T02:17:37.463Z,50.908161
2022-09-16T02:18:37.479Z,50.908123
2022-09-16T02:19:37.441Z,50.908154
2022-09-16T02:20:37.432Z,50.908161
2022-09-16T02:21:37.424Z,50.908176
2022-09-16T02:22:37.413Z,50.908173
2022-09-16T02:23:37.416Z,50.908199
2022-09-16T02:24:37.429Z,50.908142
2022-09-16T02:25:37.397Z,50.908180
2022-09-16T02:26:37.387Z,50.908184
2022-09-16T02:27:37.380Z,50.908104
2022-09-16T02:28:37.374Z,50.908123
2022-09-16T02:29:37.388Z,50.908127
2022-09-16T02:30:37.355Z,50.908127
2022-09-16T02:31:37.418Z,50.908115
2022-09-16T02:32:37.341Z,50.908104
2022-09-16T02:33:37.329Z,50.908150
2022-09-16T02:34:37.355Z,50.908207
2022-09-16T02:35:37.319Z,50.908134
2022-09-16T02:36:37.306Z,50.908127
2022-09-16T02:37:37.299Z,50.908142
2022-09-16T02:38:37.290Z,50.908157
2022-09-16T02:39:37.310Z,50.908012
2022-09-16T02:40:37.275Z,50.908119
2022-09-16T02:41:37.270Z,50.908108
2022-09-16T02:42:37.259Z,50.908134
2022-09-16T02:43:37.255Z,50.908119
2022-09-16T02:44:37.267Z,50.908127
2022-09-16T02:45:37.229Z,50.908123
2022-09-16T02:46:37.296Z,50.908161
2022-09-16T02:47:37.219Z,50.908115
2022-09-16T02:48:37.214Z,50.908157
2022-09-16T02:49:37.225Z,50.908176
2022-09-16T02:50:37.191Z,50.908131
2022-09-16T02:51:37.185Z,50.908173
2022-09-16T02:52:37.176Z,50.908112
2022-09-16T02:53:37.168Z,50.908150
2022-09-16T02:54:37.184Z,50.908115
2022-09-16T02:55:37.157Z,50.908127
2022-09-16T02:56:37.143Z,50.908134
2022-09-16T02:57:37.139Z,50.908188
2022-09-16T02:58:37.140Z,50.908131
2022-09-16T02:59:37.158Z,50.908161
2022-09-16T03:00:37.119Z,50.908218
2022-09-16T03:01:37.131Z,50.908146
2022-09-16T03:02:37.131Z,50.908089
2022-09-16T03:03:37.090Z,50.908180
2022-09-16T03:04:37.105Z,50.908180
2022-09-16T03:05:37.073Z,50.908180
2022-09-16T03:06:37.065Z,50.908180
2022-09-16T03:07:37.064Z,50.908051
2022-09-16T03:08:37.057Z,50.908051
2022-09-16T03:09:37.068Z,50.908051
2022-09-16T03:10:37.041Z,50.908051
2022-09-16T03:11:37.036Z,50.908051
2022-09-16T03:12:37.025Z,50.908051
2022-09-16T03:13:37.016Z,50.908051
2022-09-16T03:14:37.053Z,50.908051
2022-09-16T03:15:37.060Z,50.908051
2022-09-16T03:16:36.987Z,50.908051
2022-09-16T03:17:36.984Z,50.908051
2022-09-16T03:18:36.973Z,50.908051
2022-09-16T03:19:36.993Z,50.908051
2022-09-16T03:20:36.960Z,50.908051
2022-09-16T03:21:37.000Z,50.908051
2022-09-16T03:22:36.941Z,50.908051
2022-09-16T03:23:36.931Z,50.908051
2022-09-16T03:24:36.954Z,50.908051
2022-09-16T03:25:36.917Z,50.908051
2022-09-16T03:26:36.906Z,50.908051
2022-09-16T03:27:36.900Z,50.908051
2022-09-16T03:28:36.894Z,50.908051
2022-09-16T03:29:36.907Z,50.908051
2022-09-16T03:30:36.884Z,50.908051
2022-09-16T03:31:36.911Z,50.908051
2022-09-16T03:32:36.866Z,50.908051
2022-09-16T03:33:36.856Z,50.908051
2022-09-16T03:34:36.871Z,50.908051
2022-09-16T03:35:36.839Z,50.908051
2022-09-16T03:36:36.828Z,50.908150
2022-09-16T03:37:36.819Z,50.908169
2022-09-16T03:38:36.810Z,50.908173
2022-09-16T03:39:36.822Z,50.908154
2022-09-16T03:40:36.802Z,50.908154
2022-09-16T03:41:36.791Z,50.908154
2022-09-16T03:42:36.782Z,50.908085
2022-09-16T03:43:36.774Z,50.908154
2022-09-16T03:44:36.768Z,50.908131
2022-09-16T03:45:36.782Z,50.908138
2022-09-16T03:46:36.804Z,50.908188
2022-09-16T03:47:36.744Z,50.908127
2022-09-16T03:48:36.735Z,50.908127
2022-09-16T03:49:36.739Z,50.908192
2022-09-16T03:50:36.746Z,50.908150
2022-09-16T03:51:36.714Z,50.908138
2022-09-16T03:52:36.706Z,50.908092
2022-09-16T03:53:36.701Z,50.908123
2022-09-16T03:54:36.699Z,50.908134
2022-09-16T03:55:36.705Z,50.908134
2022-09-16T03:56:36.670Z,50.908180
2022-09-16T03:57:36.667Z,50.908230
2022-09-16T03:58:36.662Z,50.908215
2022-09-16T03:59:36.650Z,50.908260
2022-09-16T04:00:36.668Z,50.908302
2022-09-16T04:01:36.676Z,50.908195
2022-09-16T04:02:36.678Z,50.908043
2022-09-16T04:03:36.620Z,50.908112
2022-09-16T04:04:36.616Z,50.908279
2022-09-16T04:05:36.627Z,50.908241
2022-09-16T04:06:36.582Z,50.908237
2022-09-16T04:07:37.590Z,50.908245
2022-09-16T04:08:36.582Z,50.908165
2022-09-16T04:09:36.569Z,50.908123
2022-09-16T04:10:36.590Z,50.908031
2022-09-16T04:11:36.553Z,50.908009
2022-09-16T04:12:36.555Z,50.908142
2022-09-16T04:13:36.536Z,50.908226
2022-09-16T04:14:36.546Z,50.908203
2022-09-16T04:15:36.597Z,50.908218
2022-09-16T04:16:36.516Z,50.908165
2022-09-16T04:17:36.526Z,50.908180
2022-09-16T04:18:36.502Z,50.908218
2022-09-16T04:19:36.490Z,50.908306
2022-09-16T04:20:36.515Z,50.908218
2022-09-16T04:21:36.483Z,50.908112
2022-09-16T04:22:36.472Z,50.908165
2022-09-16T04:23:36.469Z,50.908195
2022-09-16T04:24:36.456Z,50.908150
2022-09-16T04:25:36.475Z,50.908096
2022-09-16T04:26:36.440Z,50.908154
2022-09-16T04:27:36.431Z,50.908138
2022-09-16T04:28:36.430Z,50.908085
2022-09-16T04:29:36.421Z,50.908199
2022-09-16T04:30:36.491Z,50.908195
2022-09-16T04:31:36.405Z,50.908142
2022-09-16T04:32:36.392Z,50.908104
2022-09-16T04:33:36.389Z,50.908131
2022-09-16T04:34:36.379Z,50.908150
2022-09-16T04:35:36.415Z,50.908161
2022-09-16T04:36:36.371Z,50.908173
2022-09-16T04:37:36.360Z,50.908215
2022-09-16T04:38:36.349Z,50.908169
2022-09-16T04:39:36.339Z,50.908157
2022-09-16T04:40:36.370Z,50.908154
2022-09-16T04:41:36.338Z,50.908134
2022-09-16T04:42:36.316Z,50.908142
2022-09-16T04:43:36.310Z,50.908188
2022-09-16T04:44:36.303Z,50.908165
2022-09-16T04:45:36.319Z,50.908150
2022-09-16T04:46:36.339Z,50.908146
2022-09-16T04:47:36.281Z,50.908150
2022-09-16T04:48:36.284Z,50.908142
2022-09-16T04:49:36.267Z,50.908165
2022-09-16T04:50:36.295Z,50.908165
2022-09-16T04:51:36.248Z,50.908157
2022-09-16T04:52:36.246Z,50.908138
2022-09-16T04:53:36.241Z,50.908161
2022-09-16T04:54:36.222Z,50.908146
2022-09-16T04:55:36.244Z,50.908146
2022-09-16T04:56:36.219Z,50.908161
2022-09-16T04:57:36.205Z,50.908150
2022-09-16T04:58:36.205Z,50.908169
2022-09-16T04:59:36.184Z,50.908165
2022-09-16T05:00:36.178Z,50.908161
2022-09-16T05:01:36.236Z,50.908092
2022-09-16T05:02:36.169Z,50.908134
2022-09-16T05:03:36.190Z,50.908142
2022-09-16T05:04:36.144Z,50.908146
2022-09-16T05:05:36.137Z,50.908146
2022-09-16T05:06:36.156Z,50.908169
2022-09-16T05:07:36.121Z,50.908169
2022-09-16T05:08:36.106Z,50.908157
2022-09-16T05:09:37.109Z,50.908157
2022-09-16T05:10:36.106Z,50.908169
2022-09-16T05:11:36.115Z,50.908173
2022-09-16T05:12:36.156Z,50.908165
2022-09-16T05:13:36.073Z,50.908165
2022-09-16T05:14:36.070Z,50.908165
2022-09-16T05:15:36.094Z,50.908134
2022-09-16T05:16:36.074Z,50.908154
2022-09-16T05:17:51.513Z,50.908154
2022-09-16T05:18:38.031Z,50.908169
2022-09-16T05:19:36.021Z,50.908169
2022-09-16T05:20:36.018Z,50.908180
2022-09-16T05:21:36.033Z,50.908176
2022-09-16T05:22:35.997Z,50.908188
2022-09-16T05:23:36.000Z,50.908161
2022-09-16T05:24:35.987Z,50.908165
2022-09-16T05:25:35.977Z,50.908165
2022-09-16T05:26:35.994Z,50.908161
2022-09-16T05:27:35.963Z,50.908195
2022-09-16T05:28:36.029Z,50.908184
2022-09-16T05:29:35.951Z,50.908180
2022-09-16T05:30:35.965Z,50.908176
2022-09-16T05:31:35.957Z,50.908192
2022-09-16T05:32:35.923Z,50.908173
2022-09-16T05:33:35.927Z,50.908157
2022-09-16T05:34:35.911Z,50.908157
2022-09-16T05:35:35.902Z,50.908146
2022-09-16T05:36:35.919Z,50.908112
2022-09-16T05:37:35.885Z,50.908131
2022-09-16T05:38:35.887Z,50.908154
2022-09-16T05:39:35.871Z,50.908180
2022-09-16T05:40:35.868Z,50.908161
2022-09-16T05:41:35.876Z,50.908184
2022-09-16T05:42:35.843Z,50.908222
2022-09-16T05:43:35.840Z,50.908241
2022-09-16T05:44:35.978Z,50.908192
2022-09-16T05:45:35.823Z,50.908146
2022-09-16T05:46:35.851Z,50.908115
2022-09-16T05:47:35.812Z,50.908131
2022-09-16T05:48:35.804Z,50.908173
2022-09-16T05:49:35.793Z,50.908218
2022-09-16T05:50:35.779Z,50.908173
2022-09-16T05:51:35.805Z,50.908051
2022-09-16T05:52:35.846Z,50.908115
2022-09-16T05:53:35.766Z,50.908051
2022-09-16T05:54:35.756Z,50.908047
2022-09-16T05:55:35.743Z,50.908119
2022-09-16T05:56:35.762Z,50.908134
2022-09-16T05:57:35.726Z,50.908134
2022-09-16T05:58:35.719Z,50.908134
2022-09-16T05:59:35.709Z,50.908146
2022-09-16T06:00:35.786Z,50.908169
2022-09-16T06:01:35.796Z,50.908127
2022-09-16T06:02:35.797Z,50.908092
2022-09-16T06:03:36.678Z,50.908115
2022-09-16T06:04:35.666Z,50.908154
2022-09-16T06:05:35.666Z,50.908173
2022-09-16T06:06:35.683Z,50.908138
2022-09-16T06:07:35.639Z,50.908123
2022-09-16T06:08:35.647Z,50.908138
2022-09-16T06:09:35.619Z,50.908146
2022-09-16T06:10:36.622Z,50.908134
2022-09-16T06:11:35.638Z,50.908134
2022-09-16T06:12:35.606Z,50.908142
2022-09-16T06:13:35.596Z,50.908154
2022-09-16T06:14:35.596Z,50.908142
2022-09-16T06:15:35.615Z,50.908138
2022-09-16T06:16:35.660Z,50.908161
2022-09-16T06:17:35.597Z,50.908138
2022-09-16T06:18:35.557Z,50.908142
2022-09-16T06:19:35.556Z,50.908096
2022-09-16T06:20:35.543Z,50.908134
2022-09-16T06:21:35.566Z,50.908161
2022-09-16T06:22:35.536Z,50.908142
2022-09-16T06:23:35.522Z,50.908157
2022-09-16T06:24:35.520Z,50.908150
2022-09-16T06:25:35.511Z,50.908127
2022-09-16T06:26:35.532Z,50.908157
2022-09-16T06:27:35.491Z,50.908134
2022-09-16T06:28:35.491Z,50.908119
2022-09-16T06:29:35.482Z,50.908169
2022-09-16T06:30:35.511Z,50.908180
2022-09-16T06:31:35.482Z,50.908165
2022-09-16T06:32:35.540Z,50.908165
2022-09-16T06:33:35.448Z,50.908131
2022-09-16T06:34:35.445Z,50.908150
2022-09-16T06:35:35.434Z,50.908115
2022-09-16T06:36:35.458Z,50.908176
2022-09-16T06:37:35.420Z,50.908112
2022-09-16T06:38:35.409Z,50.908073
2022-09-16T06:39:35.403Z,50.908108
2022-09-16T06:40:35.449Z,50.908085
2022-09-16T06:41:35.424Z,50.908119
2022-09-16T06:42:35.384Z,50.908123
2022-09-16T06:43:35.372Z,50.908100
2022-09-16T06:44:35.402Z,50.908112
2022-09-16T06:45:35.355Z,50.908119
2022-09-16T06:46:35.371Z,50.908203
2022-09-16T06:47:35.346Z,50.908146
2022-09-16T06:48:35.410Z,50.908127
2022-09-16T06:49:35.331Z,50.908070
2022-09-16T06:50:35.321Z,50.908123
2022-09-16T06:51:36.195Z,50.908127
2022-09-16T06:52:35.305Z,50.908138
2022-09-16T06:53:35.298Z,50.908173
2022-09-16T06:54:35.289Z,50.908134
2022-09-16T06:55:35.284Z,50.908127
2022-09-16T06:56:35.302Z,50.908119
2022-09-16T06:57:35.263Z,50.908119
2022-09-16T06:58:35.256Z,50.908096
2022-09-16T06:59:35.252Z,50.908100
2022-09-16T07:00:35.238Z,50.908119
2022-09-16T07:01:35.324Z,50.908134
2022-09-16T07:02:35.243Z,50.908100
2022-09-16T07:03:35.213Z,50.908108
2022-09-16T07:04:35.277Z,50.908077
2022-09-16T07:05:36.203Z,50.908085
2022-09-16T07:07:08.611Z,50.908123
2022-09-16T07:07:37.185Z,50.908104
2022-09-16T07:08:35.178Z,50.908108
2022-09-16T07:09:35.171Z,50.908134
2022-09-16T07:10:35.161Z,50.908112
2022-09-16T07:11:35.182Z,50.908100
2022-09-16T07:12:35.153Z,50.908096
2022-09-16T07:13:35.133Z,50.908077
2022-09-16T07:14:35.118Z,50.908096
2022-09-16T07:15:50.913Z,50.908043
2022-09-16T07:16:37.194Z,50.908073
2022-09-16T07:17:35.111Z,50.907986
2022-09-16T07:18:35.104Z,50.908035
2022-09-16T07:19:35.089Z,50.908081
2022-09-16T07:20:35.160Z,50.908089
2022-09-16T07:21:35.097Z,50.908092
2022-09-16T07:22:35.072Z,50.908123
2022-09-16T07:23:35.068Z,50.908112
2022-09-16T07:24:35.058Z,50.908115
2022-09-16T07:25:35.966Z,50.908131
2022-09-16T07:26:36.063Z,50.908096
2022-09-16T07:27:35.027Z,50.908089
2022-09-16T07:28:35.045Z,50.908077
2022-09-16T07:29:35.010Z,50.908092
2022-09-16T07:30:35.049Z,50.908127
2022-09-16T07:31:35.028Z,50.908100
2022-09-16T07:32:34.986Z,50.908123
2022-09-16T07:33:34.982Z,50.908115
2022-09-16T07:34:34.972Z,50.908081
2022-09-16T07:35:34.967Z,50.908154
2022-09-16T07:36:35.104Z,50.908081
2022-09-16T07:37:36.489Z,50.908092
2022-09-16T07:38:34.936Z,50.908104
2022-09-16T07:39:35.935Z,50.908131
2022-09-16T07:40:34.979Z,50.908115
2022-09-16T07:41:34.924Z,50.908112
2022-09-16T07:42:34.938Z,50.908096
2022-09-16T07:43:34.918Z,50.908100
2022-09-16T07:44:34.899Z,50.908081
2022-09-16T07:45:34.973Z,50.908039
2022-09-16T07:46:34.885Z,50.908077
2022-09-16T07:47:34.944Z,50.908134
2022-09-16T07:48:35.485Z,50.908138
2022-09-16T07:49:35.881Z,50.908146
2022-09-16T07:50:34.849Z,50.908119
2022-09-16T07:51:34.848Z,50.908085
2022-09-16T07:52:35.005Z,50.908108
2022-09-16T07:53:34.838Z,50.908112
2022-09-16T07:54:34.826Z,50.908112
2022-09-16T07:55:34.813Z,50.908092
2022-09-16T07:56:34.803Z,50.908085
2022-09-16T07:57:34.824Z,50.908119
2022-09-16T07:58:34.791Z,50.908119
2022-09-16T07:59:34.786Z,50.908100
2022-09-16T08:00:35.783Z,50.908100
2022-09-16T08:01:35.015Z,50.908073
2022-09-16T08:02:34.831Z,50.908100
2022-09-16T08:03:34.760Z,50.908112
2022-09-16T08:04:34.749Z,50.908089
2022-09-16T08:05:34.736Z,50.908157
2022-09-16T08:06:34.737Z,50.908176
2022-09-16T08:07:34.758Z,50.908157
2022-09-16T08:08:34.794Z,50.908180
2022-09-16T08:09:38.519Z,50.908081
2022-09-16T08:10:36.699Z,50.908115
2022-09-16T08:11:34.693Z,50.908176
2022-09-16T08:12:34.713Z,50.908096
2022-09-16T08:13:34.682Z,50.908127
2022-09-16T08:14:34.675Z,50.908180
2022-09-16T08:15:34.683Z,50.908157
2022-09-16T08:16:34.705Z,50.908108
2022-09-16T08:17:34.684Z,50.908096
2022-09-16T08:18:34.637Z,50.908104
2022-09-16T08:19:35.641Z,50.908150
2022-09-16T08:20:34.668Z,50.908108
2022-09-16T08:21:34.617Z,50.908169
2022-09-16T08:22:34.654Z,50.908134
2022-09-16T08:23:34.602Z,50.908119
2022-09-16T08:24:34.676Z,50.908131
2022-09-16T08:25:34.594Z,50.908146
2022-09-16T08:26:34.578Z,50.908092
2022-09-16T08:27:34.593Z,50.908165
2022-09-16T08:28:45.156Z,50.908096
2022-09-16T08:29:36.558Z,50.908043
2022-09-16T08:30:34.547Z,50.907993
2022-09-16T08:31:34.609Z,50.908108
2022-09-16T08:32:34.561Z,50.908142
2022-09-16T08:33:34.523Z,50.908096
2022-09-16T08:34:34.516Z,50.908028
2022-09-16T08:35:34.519Z,50.908073
2022-09-16T08:36:34.511Z,50.908070
2022-09-16T08:37:34.521Z,50.908115
2022-09-16T08:38:34.491Z,50.908058
2022-09-16T08:39:34.489Z,50.908085
2022-09-16T08:40:34.559Z,50.908085
2022-09-16T08:41:34.469Z,50.908138
2022-09-16T08:42:34.498Z,50.908150
2022-09-16T08:43:34.452Z,50.908127
2022-09-16T08:44:34.471Z,50.908081
2022-09-16T08:45:34.505Z,50.907993
2022-09-16T08:46:34.433Z,50.908043
2022-09-16T08:47:34.466Z,50.908024
2022-09-16T08:48:34.409Z,50.908031
2022-09-16T08:49:35.419Z,50.908066
2022-09-16T08:50:34.402Z,50.908157
2022-09-16T08:51:34.397Z,50.908352
2022-09-16T08:52:34.408Z,50.908360
2022-09-16T08:53:34.387Z,50.908295
2022-09-16T08:54:34.413Z,50.908199
2022-09-16T08:55:34.368Z,50.908165
2022-09-16T08:56:34.451Z,50.908157
2022-09-16T08:57:34.378Z,50.908123
2022-09-16T08:58:34.345Z,50.908073
2022-09-16T08:59:34.337Z,50.908051
2022-09-16T09:00:34.324Z,50.908051
2022-09-16T09:01:34.585Z,50.908119
2022-09-16T09:02:34.711Z,50.908077
2022-09-16T09:03:34.303Z,50.908028
2022-09-16T09:04:34.303Z,50.908085
2022-09-16T09:05:34.287Z,50.908077
2022-09-16T09:06:34.280Z,50.908211
2022-09-16T09:07:34.299Z,50.908112
2022-09-16T09:08:34.265Z,50.908112
2022-09-16T09:09:34.264Z,50.908112
2022-09-16T09:10:34.265Z,50.908112
2022-09-16T09:11:34.815Z,50.908112
2022-09-16T09:12:35.418Z,50.908112
2022-09-16T09:13:34.229Z,50.908100
2022-09-16T09:14:34.224Z,50.908016
2022-09-16T09:15:34.214Z,50.908062
2022-09-16T09:16:34.253Z,50.908089
2022-09-16T09:17:37.147Z,50.908054
2022-09-16T09:18:36.211Z,50.908085
2022-09-16T09:19:34.185Z,50.908077
2022-09-16T09:20:34.186Z,50.908092
2022-09-16T09:21:34.196Z,50.908104
2022-09-16T09:22:34.166Z,50.908115
2022-09-16T09:23:34.181Z,50.908104
2022-09-16T09:24:34.166Z,50.908051
2022-09-16T09:25:34.138Z,50.908100
2022-09-16T09:26:34.136Z,50.908115
2022-09-16T09:27:34.128Z,50.908165
2022-09-16T09:28:34.234Z,50.908089
2022-09-16T09:29:34.110Z,50.908081
2022-09-16T09:30:34.105Z,50.908077
2022-09-16T09:31:34.199Z,50.908077
2022-09-16T09:32:46.326Z,50.907967
2022-09-16T09:33:46.030Z,50.907948
2022-09-16T09:34:39.607Z,50.908123
2022-09-16T09:35:35.069Z,50.908089
2022-09-16T09:36:34.062Z,50.908123
2022-09-16T09:37:34.050Z,50.908119
2022-09-16T09:38:34.084Z,50.908100
2022-09-16T09:39:34.035Z,50.908207
2022-09-16T09:40:34.104Z,50.908092
2022-09-16T09:41:34.029Z,50.908173
2022-09-16T09:42:34.015Z,50.908230
2022-09-16T09:43:34.050Z,50.908089
2022-09-16T09:44:34.082Z,50.908138
2022-09-16T09:45:34.997Z,50.908188
2022-09-16T09:46:34.039Z,50.908188
2022-09-16T09:47:33.974Z,50.908245
2022-09-16T09:48:33.993Z,50.908268
2022-09-16T09:49:33.984Z,50.908161
2022-09-16T09:50:33.953Z,50.908127
2022-09-16T09:51:33.940Z,50.908112
2022-09-16T09:52:33.942Z,50.907997
2022-09-16T09:53:33.954Z,50.908119
2022-09-16T09:54:33.953Z,50.908115
2022-09-16T09:55:33.971Z,50.908104
2022-09-16T09:56:33.904Z,50.908115
2022-09-16T09:57:33.895Z,50.908115
2022-09-16T09:58:33.923Z,50.908142
2022-09-16T09:59:33.883Z,50.908165
2022-09-16T10:00:34.033Z,50.908154
2022-09-16T10:01:33.871Z,50.908142
2022-09-16T10:02:33.861Z,50.908062
2022-09-16T10:03:33.873Z,50.908085
2022-09-16T10:04:33.844Z,50.908062
2022-09-16T10:05:33.839Z,50.908051
2022-09-16T10:06:33.829Z,50.908123
2022-09-16T10:07:33.825Z,50.908131
2022-09-16T10:08:33.839Z,50.908081
2022-09-16T10:09:33.814Z,50.908066
2022-09-16T10:10:33.819Z,50.908134
2022-09-16T10:11:33.792Z,50.908112
2022-09-16T10:12:33.786Z,50.908077
2022-09-16T10:13:33.800Z,50.908131
2022-09-16T10:14:33.774Z,50.908127
2022-09-16T10:15:33.761Z,50.908154
2022-09-16T10:16:33.935Z,50.908123
2022-09-16T10:17:33.744Z,50.908142
2022-09-16T10:18:33.763Z,50.908146
2022-09-16T10:19:33.730Z,50.908131
2022-09-16T10:20:33.723Z,50.908138
2022-09-16T10:21:33.732Z,50.908131
2022-09-16T10:22:33.708Z,50.908112
2022-09-16T10:23:33.725Z,50.908127
2022-09-16T10:24:33.688Z,50.908134
2022-09-16T10:25:33.688Z,50.908127
2022-09-16T10:26:33.672Z,50.908131
2022-09-16T10:27:33.662Z,50.908062
2022-09-16T10:28:33.681Z,50.908119
2022-09-16T10:29:33.650Z,50.908085
2022-09-16T10:30:33.644Z,50.908047
2022-09-16T10:31:34.628Z,50.908112
2022-09-16T10:32:34.713Z,50.908104
2022-09-16T10:33:33.643Z,50.908108
2022-09-16T10:34:33.613Z,50.908131
2022-09-16T10:35:33.603Z,50.908142
2022-09-16T10:36:33.597Z,50.908142
2022-09-16T10:37:33.587Z,50.908142
2022-09-16T10:38:33.602Z,50.908165
2022-09-16T10:39:33.574Z,50.908138
2022-09-16T10:40:33.625Z,50.908123
2022-09-16T10:41:33.554Z,50.908123
2022-09-16T10:42:33.547Z,50.908115
2022-09-16T10:43:33.564Z,50.908100
2022-09-16T10:44:33.534Z,50.908115
2022-09-16T10:45:33.526Z,50.908108
2022-09-16T10:46:33.552Z,50.908131
2022-09-16T10:47:34.543Z,50.908123
2022-09-16T10:48:33.621Z,50.908150
2022-09-16T10:49:33.491Z,50.908154
2022-09-16T10:50:33.508Z,50.908123
2022-09-16T10:51:33.473Z,50.908119
2022-09-16T10:52:33.467Z,50.908157
2022-09-16T10:53:36.340Z,50.908157
2022-09-16T10:54:34.449Z,50.908123
2022-09-16T10:55:33.438Z,50.908150
2022-09-16T10:56:33.439Z,50.908138
2022-09-16T10:57:33.431Z,50.908089
2022-09-16T10:58:33.446Z,50.908100
2022-09-16T10:59:33.449Z,50.908157
2022-09-16T11:00:33.497Z,50.908154
2022-09-16T11:01:34.130Z,50.908150
2022-09-16T11:02:33.389Z,50.908127
2022-09-16T11:03:33.424Z,50.908104
2022-09-16T11:04:33.462Z,50.908104
2022-09-16T11:05:33.368Z,50.908104
2022-09-16T11:06:33.357Z,50.908112
2022-09-16T11:07:33.349Z,50.908112
2022-09-16T11:08:33.342Z,50.908062
2022-09-16T11:09:33.357Z,50.908134
2022-09-16T11:10:33.330Z,50.908161
2022-09-16T11:11:33.325Z,50.908131
2022-09-16T11:12:33.316Z,50.908096
2022-09-16T11:13:33.302Z,50.908115
2022-09-16T11:14:33.320Z,50.908161
2022-09-16T11:15:33.293Z,50.908092
2022-09-16T11:16:33.324Z,50.908134
2022-09-16T11:17:33.269Z,50.908112
2022-09-16T11:18:33.270Z,50.908138
2022-09-16T11:19:33.292Z,50.908138
2022-09-16T11:20:33.383Z,50.908100
2022-09-16T11:21:33.250Z,50.908077
2022-09-16T11:22:33.232Z,50.908108
2022-09-16T11:23:33.224Z,50.908108
2022-09-16T11:24:33.243Z,50.908112